createdAt,value
2023-01-21T00:01:27.425Z,13.60
2023-01-21T00:03:31.978Z,15.35
2023-01-21T00:05:36.632Z,16.60
2023-01-21T00:07:40.872Z,17.17
2023-01-21T00:09:48.479Z,14.93
2023-01-21T00:12:08.754Z,14.68
2023-01-21T00:14:13.163Z,13.85
2023-01-21T00:16:14.921Z,15.82
2023-01-21T00:18:16.598Z,15.20
2023-01-21T00:20:18.456Z,15.45
2023-01-21T00:22:22.959Z,15.57
2023-01-21T00:24:27.386Z,15.10
2023-01-21T00:26:28.841Z,14.80
2023-01-21T00:28:49.190Z,17.48
2023-01-21T00:33:00.958Z,17.58
2023-01-21T00:37:06.489Z,18.33
2023-01-21T00:39:11.059Z,16.70
2023-01-21T00:41:15.289Z,16.45
2023-01-21T00:43:35.691Z,16.02
2023-01-21T00:45:37.285Z,16.90
2023-01-21T00:47:38.753Z,15.98
2023-01-21T00:49:58.908Z,17.30
2023-01-21T00:52:00.384Z,17.23
2023-01-21T00:54:01.969Z,18.55
2023-01-21T00:56:10.697Z,19.60
2023-01-21T00:58:24.415Z,18.23
2023-01-21T01:00:32.914Z,15.77
2023-01-21T01:02:45.227Z,17.23
2023-01-21T01:05:09.945Z,17.38
2023-01-21T01:07:16.033Z,17.80
2023-01-21T01:09:27.445Z,17.30
2023-01-21T01:11:37.682Z,17.15
2023-01-21T01:13:51.564Z,17.02
2023-01-21T01:16:07.007Z,17.77
2023-01-21T01:18:16.940Z,15.27
2023-01-21T01:20:31.195Z,15.18
2023-01-21T01:22:44.093Z,14.75
2023-01-21T01:24:55.371Z,17.35
2023-01-21T01:27:05.634Z,14.95
2023-01-21T01:29:11.806Z,16.23
2023-01-21T01:31:15.271Z,15.10
2023-01-21T01:33:16.968Z,18.25
2023-01-21T01:35:18.414Z,14.80
2023-01-21T01:37:22.821Z,16.77
2023-01-21T01:39:27.151Z,15.05
2023-01-21T01:41:32.380Z,15.52
2023-01-21T01:43:52.943Z,15.65
2023-01-21T01:45:54.555Z,14.45
2023-01-21T01:48:00.884Z,14.80
2023-01-21T01:50:10.526Z,14.43
2023-01-21T01:52:30.818Z,15.35
2023-01-21T01:54:34.392Z,13.55
2023-01-21T01:56:38.606Z,11.93
2023-01-21T01:58:43.810Z,15.88
2023-01-21T02:00:45.781Z,13.90
2023-01-21T02:03:09.030Z,13.52
2023-01-21T02:05:13.517Z,13.48
2023-01-21T02:09:19.245Z,14.73
2023-01-21T02:11:23.908Z,12.88
2023-01-21T02:13:29.423Z,14.02
2023-01-21T02:15:51.317Z,12.23
2023-01-21T02:18:11.604Z,13.85
2023-01-21T02:20:28.357Z,13.02
2023-01-21T02:22:48.449Z,13.23
2023-01-21T02:24:52.603Z,12.05
2023-01-21T02:26:56.613Z,12.82
2023-01-21T02:29:04.031Z,14.80
2023-01-21T02:31:24.450Z,11.70
2023-01-21T02:33:29.016Z,13.07
2023-01-21T02:35:53.489Z,13.38
2023-01-21T02:38:00.455Z,12.63
2023-01-21T02:40:04.729Z,12.18
2023-01-21T02:42:24.849Z,12.80
2023-01-21T02:44:38.479Z,13.13
2023-01-21T02:46:43.913Z,13.18
2023-01-21T02:48:50.273Z,12.60
2023-01-21T02:50:52.914Z,12.45
2023-01-21T02:52:58.239Z,12.85
2023-01-21T02:55:18.476Z,12.45
2023-01-21T02:57:24.451Z,12.55
2023-01-21T02:59:26.039Z,12.10
2023-01-21T03:03:49.473Z,11.35
2023-01-21T03:06:13.885Z,12.02
2023-01-21T03:08:22.185Z,11.07
2023-01-21T03:10:38.638Z,12.90
2023-01-21T03:13:00.888Z,16.88
2023-01-21T03:15:27.316Z,14.77
2023-01-21T03:17:34.933Z,13.32
2023-01-21T03:19:39.429Z,12.63
2023-01-21T03:23:47.206Z,11.85
2023-01-21T03:25:50.436Z,12.88
2023-01-21T03:27:52.694Z,12.27
2023-01-21T03:29:58.873Z,11.95
2023-01-21T03:32:06.045Z,12.80
2023-01-21T03:34:10.058Z,12.55
2023-01-21T03:36:21.514Z,13.05
2023-01-21T03:38:26.947Z,13.35
2023-01-21T03:40:34.948Z,12.73
2023-01-21T03:42:36.384Z,14.23
2023-01-21T03:44:38.378Z,11.60
2023-01-21T03:46:54.041Z,12.50
2023-01-21T03:48:58.492Z,11.70
2023-01-21T03:51:02.646Z,11.63
2023-01-21T03:53:06.957Z,11.98
2023-01-21T03:55:12.284Z,14.07
2023-01-21T03:57:13.702Z,12.55
2023-01-21T03:59:15.230Z,11.93
2023-01-21T04:01:16.746Z,11.95
2023-01-21T04:03:20.192Z,10.43
2023-01-21T04:05:42.512Z,12.15
2023-01-21T04:07:49.361Z,11.98
2023-01-21T04:09:53.161Z,10.68
2023-01-21T04:11:56.996Z,11.57
2023-01-21T04:14:03.570Z,12.73
2023-01-21T04:16:25.882Z,13.63
2023-01-21T04:18:29.481Z,13.30
2023-01-21T04:20:32.688Z,12.85
2023-01-21T04:22:38.371Z,14.52
2023-01-21T04:24:41.867Z,15.50
2023-01-21T04:26:47.380Z,13.63
2023-01-21T04:28:51.409Z,12.73
2023-01-21T04:30:54.863Z,14.20
2023-01-21T04:33:02.738Z,10.95
2023-01-21T04:35:10.268Z,15.32
2023-01-21T04:37:14.790Z,14.40
2023-01-21T04:39:22.553Z,14.15
2023-01-21T04:41:29.729Z,13.98
2023-01-21T04:43:31.249Z,13.30
2023-01-21T04:45:51.598Z,15.18
2023-01-21T04:47:53.200Z,15.00
2023-01-21T04:49:54.694Z,14.52
2023-01-21T04:51:56.172Z,13.75
2023-01-21T04:54:00.484Z,13.77
2023-01-21T04:56:05.079Z,14.05
2023-01-21T04:58:25.176Z,12.75
2023-01-21T05:00:26.765Z,14.00
2023-01-21T05:02:28.859Z,13.23
2023-01-21T05:04:33.114Z,13.82
2023-01-21T05:06:37.376Z,13.88
2023-01-21T05:08:38.803Z,14.32
2023-01-21T05:10:40.391Z,13.07
2023-01-21T05:13:00.500Z,14.82
2023-01-21T05:15:02.161Z,14.15
2023-01-21T05:17:06.589Z,13.80
2023-01-21T05:21:12.164Z,13.25
2023-01-21T05:23:32.299Z,14.00
2023-01-21T05:25:33.765Z,13.35
2023-01-21T05:27:37.997Z,15.52
2023-01-21T05:29:45.447Z,13.10
2023-01-21T05:31:49.886Z,13.30
2023-01-21T05:33:51.294Z,14.90
2023-01-21T05:35:52.799Z,15.35
2023-01-21T05:37:59.478Z,14.00
2023-01-21T05:40:01.836Z,14.63
2023-01-21T05:42:06.304Z,15.27
2023-01-21T05:44:08.873Z,13.93
2023-01-21T05:46:28.926Z,14.75
2023-01-21T05:48:48.977Z,15.32
2023-01-21T05:50:50.630Z,13.85
2023-01-21T05:52:52.294Z,15.85
2023-01-21T05:57:06.897Z,14.15
2023-01-21T05:59:11.374Z,13.57
2023-01-21T06:01:12.910Z,14.60
2023-01-21T06:03:33.108Z,13.27
2023-01-21T06:07:38.744Z,13.70
2023-01-21T06:09:58.804Z,13.98
2023-01-21T06:14:07.201Z,12.68
2023-01-21T06:16:11.646Z,14.05
2023-01-21T06:18:31.948Z,12.82
2023-01-21T06:20:33.762Z,13.95
2023-01-21T06:22:35.206Z,13.20
2023-01-21T06:24:36.871Z,13.88
2023-01-21T06:26:41.195Z,15.07
2023-01-21T06:28:42.634Z,13.32
2023-01-21T06:30:47.100Z,13.05
2023-01-21T06:32:51.354Z,14.73
2023-01-21T06:34:55.479Z,13.65
2023-01-21T06:37:03.123Z,14.68
2023-01-21T06:39:09.496Z,13.65
2023-01-21T06:41:11.193Z,14.57
2023-01-21T06:43:15.426Z,14.00
2023-01-21T06:45:20.217Z,14.45
2023-01-21T06:47:21.685Z,13.32
2023-01-21T06:49:23.149Z,13.07
2023-01-21T06:51:24.708Z,13.02
2023-01-21T06:53:26.267Z,13.15
2023-01-21T06:55:30.488Z,14.65
2023-01-21T06:57:50.799Z,12.73
2023-01-21T07:00:11.853Z,12.73
2023-01-21T07:02:16.048Z,14.02
2023-01-21T07:04:17.489Z,13.82
2023-01-21T07:06:22.462Z,14.70
2023-01-21T07:08:35.519Z,14.43
2023-01-21T07:10:58.951Z,12.65
2023-01-21T07:13:12.827Z,13.13
2023-01-21T07:15:42.097Z,13.40
2023-01-21T07:17:58.680Z,12.52
2023-01-21T07:20:14.389Z,13.50
2023-01-21T07:22:31.062Z,13.65
2023-01-21T07:24:46.059Z,13.43
2023-01-21T07:27:04.780Z,13.70
2023-01-21T07:29:21.844Z,14.10
2023-01-21T07:31:33.708Z,13.50
2023-01-21T07:33:46.359Z,13.13
2023-01-21T07:35:59.956Z,13.50
2023-01-21T07:38:19.947Z,13.18
2023-01-21T07:40:26.670Z,15.07
2023-01-21T07:44:32.397Z,12.25
2023-01-21T07:46:34.889Z,13.73
2023-01-21T07:48:36.445Z,13.73
2023-01-21T07:50:37.971Z,15.23
2023-01-21T07:54:49.269Z,13.60
2023-01-21T07:56:50.863Z,12.77
2023-01-21T07:58:55.354Z,17.25
2023-01-21T08:00:56.918Z,14.63
2023-01-21T08:03:01.147Z,16.17
2023-01-21T08:05:02.797Z,13.75
2023-01-21T08:07:12.009Z,13.57
2023-01-21T08:09:17.732Z,13.75
2023-01-21T08:11:19.233Z,13.98
2023-01-21T08:13:21.075Z,14.27
2023-01-21T08:15:25.325Z,13.57
2023-01-21T08:17:29.845Z,14.15
2023-01-21T08:19:31.325Z,14.57
2023-01-21T08:21:35.772Z,14.73
2023-01-21T08:23:37.237Z,13.65
2023-01-21T08:25:41.863Z,14.00
2023-01-21T08:27:43.317Z,13.80
2023-01-21T08:30:03.760Z,12.98
2023-01-21T08:32:05.221Z,13.30
2023-01-21T08:34:25.843Z,13.63
2023-01-21T08:36:30.417Z,13.45
2023-01-21T08:38:34.660Z,14.65
2023-01-21T08:40:36.142Z,14.38
2023-01-21T08:42:40.465Z,14.88
2023-01-21T08:44:50.921Z,14.80
2023-01-21T08:46:58.706Z,14.23
2023-01-21T08:49:00.219Z,16.58
2023-01-21T08:51:20.292Z,13.27
2023-01-21T08:55:26.834Z,12.00
2023-01-21T08:57:28.472Z,13.60
2023-01-21T08:59:30.296Z,14.10
2023-01-21T09:01:31.949Z,13.65
2023-01-21T09:03:33.424Z,14.43
2023-01-21T09:05:40.599Z,15.02
2023-01-21T09:07:45.651Z,13.52
2023-01-21T09:09:50.012Z,16.33
2023-01-21T09:11:52.569Z,14.32
2023-01-21T09:14:12.468Z,14.98
2023-01-21T09:16:17.697Z,15.40
2023-01-21T09:18:19.602Z,13.57
2023-01-21T09:20:21.141Z,14.55
2023-01-21T09:22:28.452Z,15.93
2023-01-21T09:24:30.039Z,16.15
2023-01-21T09:26:37.324Z,15.02
2023-01-21T09:28:45.525Z,16.48
2023-01-21T09:30:47.329Z,14.57
2023-01-21T09:32:51.700Z,16.08
2023-01-21T09:34:53.229Z,15.13
2023-01-21T09:38:59.168Z,12.93
2023-01-21T09:41:22.192Z,15.18
2023-01-21T09:43:25.925Z,16.60
2023-01-21T09:45:33.262Z,16.48
2023-01-21T09:47:40.009Z,17.35
2023-01-21T09:49:41.666Z,20.52
2023-01-21T09:51:46.153Z,17.55
2023-01-21T09:53:50.151Z,19.40
2023-01-21T09:55:53.094Z,21.42
2023-01-21T09:58:15.682Z,18.55
2023-01-21T10:00:34.452Z,19.60
2023-01-21T10:02:48.490Z,17.42
2023-01-21T10:05:34.951Z,19.90
2023-01-21T10:07:44.669Z,19.80
2023-01-21T10:10:18.512Z,20.38
2023-01-21T10:12:28.818Z,20.38
2023-01-21T10:14:42.666Z,22.13
2023-01-21T10:16:57.826Z,22.13
2023-01-21T10:19:12.426Z,22.70
2023-01-21T10:21:38.469Z,21.33
2023-01-21T10:23:58.199Z,21.88
2023-01-21T10:26:22.083Z,22.02
2023-01-21T10:28:41.060Z,22.13
2023-01-21T10:31:04.242Z,21.20
2023-01-21T10:33:25.653Z,20.42
2023-01-21T10:35:48.850Z,22.13
2023-01-21T10:38:02.101Z,19.90
2023-01-21T10:40:27.547Z,20.83
2023-01-21T10:42:51.578Z,21.37
2023-01-21T10:45:18.155Z,20.88
2023-01-21T10:47:58.271Z,24.80
2023-01-21T10:50:18.679Z,22.63
2023-01-21T10:52:28.816Z,21.42
2023-01-21T10:54:45.210Z,20.60
2023-01-21T10:56:55.529Z,24.42
2023-01-21T10:59:17.561Z,21.88
2023-01-21T11:01:25.555Z,18.75
2023-01-21T11:03:33.370Z,17.77
2023-01-21T11:05:38.401Z,18.55
2023-01-21T11:07:58.703Z,17.98
2023-01-21T11:10:01.009Z,15.30
2023-01-21T11:12:10.112Z,17.05
2023-01-21T11:14:19.345Z,16.23
2023-01-21T11:16:34.899Z,15.85
2023-01-21T11:18:42.344Z,16.88
2023-01-21T11:20:50.008Z,15.18
2023-01-21T11:22:54.117Z,15.25
2023-01-21T11:25:02.849Z,13.82
2023-01-21T11:27:21.393Z,14.85
2023-01-21T11:29:26.276Z,16.17
2023-01-21T11:31:34.014Z,14.80
2023-01-21T11:33:54.934Z,17.42
2023-01-21T11:36:19.299Z,14.75
2023-01-21T11:38:29.463Z,15.43
2023-01-21T11:40:33.655Z,13.32
2023-01-21T11:42:45.928Z,13.70
2023-01-21T11:44:57.692Z,14.38
2023-01-21T11:46:59.415Z,13.02
2023-01-21T11:49:07.079Z,13.80
2023-01-21T11:51:11.233Z,12.90
2023-01-21T11:53:13.223Z,11.02
2023-01-21T11:55:37.327Z,12.52
2023-01-21T11:57:41.707Z,12.60
2023-01-21T11:59:46.556Z,10.98
2023-01-21T12:01:59.750Z,10.88
2023-01-21T12:04:19.820Z,11.38
2023-01-21T12:06:30.767Z,11.02
2023-01-21T12:08:37.403Z,10.80
2023-01-21T12:10:45.784Z,11.18
2023-01-21T12:12:59.727Z,11.23
2023-01-21T12:15:11.483Z,10.65
2023-01-21T12:17:22.035Z,10.85
2023-01-21T12:19:23.576Z,10.77
2023-01-21T12:23:35.120Z,10.35
2023-01-21T12:25:53.538Z,10.23
2023-01-21T12:28:32.739Z,11.63
2023-01-21T12:30:36.895Z,10.52
2023-01-21T12:32:43.924Z,10.43
2023-01-21T12:34:47.710Z,11.70
2023-01-21T12:37:11.805Z,12.20
2023-01-21T12:39:18.596Z,11.38
2023-01-21T12:41:23.313Z,11.25
2023-01-21T12:43:30.699Z,11.10
2023-01-21T12:45:41.363Z,11.38
2023-01-21T12:47:52.539Z,9.63
2023-01-21T12:50:14.934Z,10.75
2023-01-21T12:52:29.040Z,10.25
2023-01-21T12:54:40.040Z,11.18
2023-01-21T12:56:48.080Z,10.95
2023-01-21T12:58:58.388Z,10.40
2023-01-21T13:01:06.108Z,10.57
2023-01-21T13:03:10.780Z,11.55
2023-01-21T13:05:31.469Z,9.27
2023-01-21T13:07:59.249Z,9.73
2023-01-21T13:10:15.612Z,9.25
2023-01-21T13:12:21.907Z,10.03
2023-01-21T13:14:34.921Z,9.05
2023-01-21T13:16:38.503Z,9.48
2023-01-21T13:18:43.841Z,9.15
2023-01-21T13:20:53.959Z,8.38
2023-01-21T13:23:10.758Z,9.52
2023-01-21T13:25:44.698Z,10.00
2023-01-21T13:27:46.716Z,8.73
2023-01-21T13:30:06.398Z,9.68
2023-01-21T13:32:13.744Z,8.60
2023-01-21T13:34:18.284Z,8.35
2023-01-21T13:36:33.882Z,8.27
2023-01-21T13:38:38.050Z,9.95
2023-01-21T13:40:42.826Z,8.38
2023-01-21T13:42:52.403Z,8.82
2023-01-21T13:44:56.775Z,7.57
2023-01-21T13:47:17.225Z,8.00
2023-01-21T13:49:56.965Z,7.00
2023-01-21T13:52:19.843Z,6.35
2023-01-21T13:54:37.571Z,5.53
2023-01-21T13:56:57.838Z,7.28
2023-01-21T13:59:04.607Z,6.93
2023-01-21T14:01:08.668Z,6.25
2023-01-21T14:05:20.244Z,6.95
2023-01-21T14:07:28.966Z,7.43
2023-01-21T14:09:43.516Z,6.45
2023-01-21T14:11:56.280Z,7.72
2023-01-21T14:14:18.972Z,7.18
2023-01-21T14:16:28.720Z,7.60
2023-01-21T14:18:33.512Z,6.32
2023-01-21T14:20:55.525Z,7.38
2023-01-21T14:22:58.123Z,7.30
2023-01-21T14:25:16.990Z,7.70
2023-01-21T14:27:25.682Z,7.93
2023-01-21T14:29:34.342Z,8.05
2023-01-21T14:31:39.303Z,7.00
2023-01-21T14:33:46.290Z,7.85
2023-01-21T14:36:17.725Z,6.88
2023-01-21T14:38:40.818Z,7.28
2023-01-21T14:40:47.683Z,7.45
2023-01-21T14:44:50.751Z,6.78
2023-01-21T14:47:33.294Z,5.90
2023-01-21T14:49:41.636Z,6.65
2023-01-21T14:51:50.010Z,5.72
2023-01-21T14:54:00.000Z,6.72
2023-01-21T14:56:09.457Z,6.45
2023-01-21T14:58:20.328Z,6.40
2023-01-21T15:00:28.057Z,6.30
2023-01-21T15:02:41.358Z,6.75
2023-01-21T15:04:56.655Z,7.10
2023-01-21T15:07:08.865Z,6.00
2023-01-21T15:09:19.640Z,6.45
2023-01-21T15:11:22.725Z,7.22
2023-01-21T15:13:33.172Z,5.47
2023-01-21T15:16:00.372Z,6.47
2023-01-21T15:18:04.114Z,8.10
2023-01-21T15:20:27.355Z,6.82
2023-01-21T15:22:41.047Z,6.85
2023-01-21T15:25:04.052Z,6.47
2023-01-21T15:27:11.746Z,9.23
2023-01-21T15:29:29.852Z,6.65
2023-01-21T15:31:43.399Z,7.75
2023-01-21T15:33:57.571Z,8.93
2023-01-21T15:36:03.456Z,7.57
2023-01-21T15:38:08.093Z,6.57
2023-01-21T15:42:13.584Z,7.47
2023-01-21T15:44:17.907Z,7.18
2023-01-21T15:46:25.640Z,7.53
2023-01-21T15:48:42.239Z,7.40
2023-01-21T15:51:03.125Z,8.27
2023-01-21T15:53:16.803Z,8.57
2023-01-21T15:55:30.441Z,8.73
2023-01-21T15:57:40.653Z,8.30
2023-01-21T15:59:51.093Z,7.05
2023-01-21T16:02:07.737Z,9.13
2023-01-21T16:04:11.375Z,10.32
2023-01-21T16:06:38.858Z,10.00
2023-01-21T16:08:46.205Z,9.18
2023-01-21T16:11:07.978Z,8.95
2023-01-21T16:13:28.085Z,9.20
2023-01-21T16:16:03.446Z,9.70
2023-01-21T16:18:13.538Z,9.25
2023-01-21T16:20:16.618Z,9.40
2023-01-21T16:22:26.985Z,8.85
2023-01-21T16:24:31.768Z,10.25
2023-01-21T16:28:45.880Z,8.63
2023-01-21T16:30:57.576Z,8.98
2023-01-21T16:33:09.323Z,9.55
2023-01-21T16:35:17.046Z,9.38
2023-01-21T16:37:20.372Z,9.00
2023-01-21T16:39:27.589Z,9.93
2023-01-21T16:41:29.285Z,9.40
2023-01-21T16:43:50.621Z,10.60
2023-01-21T16:45:56.687Z,9.23
2023-01-21T16:48:04.416Z,10.82
2023-01-21T16:50:19.492Z,10.75
2023-01-21T16:52:26.695Z,9.43
2023-01-21T16:54:32.388Z,9.45
2023-01-21T16:56:33.932Z,9.48
2023-01-21T16:58:46.511Z,9.18
2023-01-21T17:01:15.679Z,9.32
2023-01-21T17:03:23.131Z,9.25
2023-01-21T17:05:32.552Z,9.20
2023-01-21T17:07:41.444Z,9.18
2023-01-21T17:09:43.104Z,8.98
2023-01-21T17:11:51.008Z,8.88
2023-01-21T17:13:52.921Z,10.30
2023-01-21T17:15:59.913Z,9.88
2023-01-21T17:18:27.642Z,14.38
2023-01-21T17:20:32.267Z,10.80
2023-01-21T17:22:34.801Z,9.98
2023-01-21T17:24:39.346Z,9.32
2023-01-21T17:27:20.358Z,8.48
2023-01-21T17:29:26.215Z,9.52
2023-01-21T17:31:29.158Z,8.98
2023-01-21T17:33:30.942Z,8.68
2023-01-21T17:35:35.580Z,9.00
2023-01-21T17:37:40.176Z,9.60
2023-01-21T17:39:48.244Z,8.63
2023-01-21T17:41:52.632Z,9.18
2023-01-21T17:43:58.378Z,9.77
2023-01-21T17:46:00.083Z,10.10
2023-01-21T17:48:12.619Z,11.40
2023-01-21T17:50:20.416Z,10.73
2023-01-21T17:52:28.452Z,10.15
2023-01-21T17:54:49.001Z,11.88
2023-01-21T17:56:54.749Z,12.35
2023-01-21T17:59:02.532Z,16.90
2023-01-21T18:01:04.243Z,13.73
2023-01-21T18:03:24.305Z,12.57
2023-01-21T18:05:26.209Z,12.50
2023-01-21T18:07:29.954Z,12.25
2023-01-21T18:09:34.674Z,11.85
2023-01-21T18:11:36.185Z,10.77
2023-01-21T18:13:56.352Z,13.15
2023-01-21T18:15:58.052Z,10.82
2023-01-21T18:18:01.463Z,12.40
2023-01-21T18:20:03.161Z,12.13
2023-01-21T18:22:33.200Z,13.73
2023-01-21T18:24:35.604Z,10.27
2023-01-21T18:26:39.809Z,10.38
2023-01-21T18:28:44.264Z,12.27
2023-01-21T18:30:46.203Z,12.77
2023-01-21T18:32:49.715Z,22.67
2023-01-21T18:34:57.255Z,18.25
2023-01-21T18:37:18.624Z,14.63
2023-01-21T18:39:20.360Z,14.60
2023-01-21T18:41:25.676Z,13.10
2023-01-21T18:43:30.010Z,19.65
2023-01-21T18:45:31.556Z,19.42
2023-01-21T18:47:51.907Z,23.42
2023-01-21T18:49:57.866Z,22.95
2023-01-21T18:52:05.436Z,21.20
2023-01-21T18:54:10.176Z,21.60
2023-01-21T18:56:13.069Z,20.27
2023-01-21T18:58:17.793Z,16.70
2023-01-21T19:00:29.488Z,17.30
2023-01-21T19:02:33.992Z,13.90
2023-01-21T19:04:35.603Z,14.25
2023-01-21T19:06:39.857Z,12.10
2023-01-21T19:10:46.825Z,12.60
2023-01-21T19:12:48.471Z,12.88
2023-01-21T19:14:56.089Z,12.95
2023-01-21T19:16:57.560Z,12.40
2023-01-21T19:21:08.609Z,14.07
2023-01-21T19:23:15.623Z,12.40
2023-01-21T19:25:21.059Z,13.07
2023-01-21T19:27:22.660Z,13.68
2023-01-21T19:29:50.752Z,12.88
2023-01-21T19:32:01.653Z,14.13
2023-01-21T19:34:11.783Z,13.75
2023-01-21T19:36:21.434Z,14.52
2023-01-21T19:38:29.645Z,14.15
2023-01-21T19:40:36.104Z,13.90
2023-01-21T19:42:47.568Z,15.90
2023-01-21T19:44:55.735Z,16.80
2023-01-21T19:47:05.160Z,23.83
2023-01-21T19:49:17.732Z,17.92
2023-01-21T19:51:22.646Z,17.98
2023-01-21T19:53:29.802Z,22.33
2023-01-21T19:55:42.738Z,30.15
2023-01-21T19:58:09.754Z,26.35
2023-01-21T20:00:23.356Z,41.53
2023-01-21T20:02:24.996Z,39.05
2023-01-21T20:04:29.591Z,34.47
2023-01-21T20:06:49.953Z,53.42
2023-01-21T20:08:58.971Z,54.17
2023-01-21T20:11:00.532Z,56.28
2023-01-21T20:13:02.120Z,43.53
2023-01-21T20:15:10.197Z,42.00
2023-01-21T20:17:14.706Z,43.45
2023-01-21T20:19:22.837Z,43.17
2023-01-21T20:21:27.129Z,39.05
2023-01-21T20:23:36.456Z,43.47
2023-01-21T20:25:41.200Z,47.72
2023-01-21T20:27:43.969Z,49.63
2023-01-21T20:30:26.828Z,43.50
2023-01-21T20:32:27.727Z,36.67
2023-01-21T20:34:31.546Z,38.28
2023-01-21T20:36:39.016Z,41.78
2023-01-21T20:38:42.158Z,46.53
2023-01-21T20:41:03.539Z,46.95
2023-01-21T20:43:23.767Z,46.28
2023-01-21T20:45:34.230Z,45.42
2023-01-21T20:47:43.373Z,44.47
2023-01-21T20:49:51.060Z,46.20
2023-01-21T20:52:11.432Z,43.70
2023-01-21T20:54:15.905Z,42.17
2023-01-21T20:56:22.215Z,37.10
2023-01-21T20:58:28.079Z,36.65
2023-01-21T21:00:36.035Z,36.33
2023-01-21T21:02:37.770Z,43.00
2023-01-21T21:04:39.352Z,39.25
2023-01-21T21:06:40.941Z,39.97
2023-01-21T21:08:45.629Z,41.28
2023-01-21T21:10:53.116Z,37.85
2023-01-21T21:12:58.930Z,29.90
2023-01-21T21:15:03.326Z,35.97
2023-01-21T21:17:05.787Z,32.42
2023-01-21T21:19:11.625Z,33.45
2023-01-21T21:21:21.082Z,34.03
2023-01-21T21:23:24.221Z,34.38
2023-01-21T21:25:27.143Z,33.38
2023-01-21T21:27:28.642Z,32.17
2023-01-21T21:29:30.094Z,34.85
2023-01-21T21:31:32.680Z,35.97
2023-01-21T21:33:41.084Z,37.63
2023-01-21T21:35:44.616Z,35.15
2023-01-21T21:37:46.227Z,35.33
2023-01-21T21:39:47.718Z,36.45
2023-01-21T21:44:14.813Z,34.22
2023-01-21T21:46:35.002Z,34.28
2023-01-21T21:48:42.636Z,37.35
2023-01-21T21:50:44.201Z,38.85
2023-01-21T21:52:45.821Z,36.08
2023-01-21T21:54:47.817Z,34.50
2023-01-21T21:57:07.807Z,37.40
2023-01-21T21:59:12.493Z,32.40
2023-01-21T22:01:21.351Z,34.53
2023-01-21T22:03:22.901Z,34.33
2023-01-21T22:05:24.546Z,30.45
2023-01-21T22:07:26.021Z,31.52
2023-01-21T22:09:27.485Z,32.45
2023-01-21T22:11:32.033Z,30.42
2023-01-21T22:13:34.923Z,29.38
2023-01-21T22:15:36.369Z,29.38
2023-01-21T22:17:37.847Z,28.23
2023-01-21T22:19:39.376Z,28.80
2023-01-21T22:21:43.950Z,30.95
2023-01-21T22:23:48.582Z,29.33
2023-01-21T22:25:50.375Z,31.70
2023-01-21T22:28:10.572Z,28.75
2023-01-21T22:30:12.285Z,28.20
2023-01-21T22:32:17.193Z,30.60
2023-01-21T22:34:22.364Z,31.35
2023-01-21T22:39:07.547Z,31.25
2023-01-21T22:41:24.111Z,29.35
2023-01-21T22:43:33.602Z,29.83
2023-01-21T22:45:52.654Z,30.05
2023-01-21T22:48:05.479Z,29.83
2023-01-21T22:50:17.060Z,32.22
2023-01-21T22:52:28.622Z,31.35
2023-01-21T22:54:40.898Z,31.50
2023-01-21T22:56:52.910Z,29.92
2023-01-21T22:59:20.135Z,32.92
2023-01-21T23:01:38.024Z,33.38
2023-01-21T23:04:05.713Z,30.25
2023-01-21T23:06:15.028Z,29.85
2023-01-21T23:08:17.483Z,30.58
2023-01-21T23:10:25.141Z,30.35
2023-01-21T23:12:29.897Z,29.52
2023-01-21T23:14:31.360Z,32.80
2023-01-21T23:16:35.477Z,34.50
2023-01-21T23:18:40.486Z,33.35
2023-01-21T23:20:43.221Z,32.45
2023-01-21T23:22:47.541Z,35.00
2023-01-21T23:24:51.905Z,37.25
2023-01-21T23:26:56.284Z,33.83
2023-01-21T23:28:58.312Z,33.17
2023-01-21T23:31:06.428Z,35.67
2023-01-21T23:33:26.750Z,35.40
2023-01-21T23:35:47.612Z,34.50
2023-01-21T23:37:51.677Z,36.92
2023-01-21T23:39:53.149Z,33.30
2023-01-21T23:41:57.816Z,31.58
2023-01-21T23:44:02.426Z,33.38
2023-01-21T23:46:05.038Z,31.70
2023-01-21T23:48:25.596Z,33.97
2023-01-21T23:50:27.059Z,37.55
2023-01-21T23:52:28.651Z,33.90
2023-01-21T23:54:30.063Z,35.97
2023-01-21T23:56:31.529Z,35.28
2023-01-21T23:58:52.080Z,33.22
